createdAt,value
2018-11-28T00:01:28.964Z,6.47
2018-11-28T00:04:00.421Z,6.33
2018-11-28T00:06:32.242Z,6.53
2018-11-28T00:09:03.906Z,7.00
2018-11-28T00:11:35.343Z,6.33
2018-11-28T00:14:07.425Z,6.10
2018-11-28T00:16:38.823Z,7.13
2018-11-28T00:19:09.895Z,6.63
2018-11-28T00:21:41.398Z,6.23
2018-11-28T00:24:12.358Z,6.20
2018-11-28T00:26:43.899Z,6.70
2018-11-28T00:29:14.926Z,6.80
2018-11-28T00:31:46.715Z,6.90
2018-11-28T00:34:17.706Z,6.20
2018-11-28T00:36:50.310Z,6.90
2018-11-28T00:39:21.535Z,6.00
2018-11-28T00:41:54.395Z,6.17
2018-11-28T00:44:25.526Z,6.50
2018-11-28T00:46:57.022Z,6.60
2018-11-28T00:49:28.278Z,7.13
2018-11-28T00:51:59.649Z,7.00
2018-11-28T00:54:30.809Z,8.20
2018-11-28T00:57:02.146Z,7.10
2018-11-28T00:59:33.511Z,6.30
2018-11-28T01:02:04.991Z,7.50
2018-11-28T01:04:36.281Z,7.60
2018-11-28T01:07:07.898Z,8.20
2018-11-28T01:09:39.050Z,8.17
2018-11-28T01:12:10.421Z,6.80
2018-11-28T01:14:41.653Z,7.40
2018-11-28T01:17:13.894Z,7.80
2018-11-28T01:19:44.900Z,6.97
2018-11-28T01:22:16.326Z,8.20
2018-11-28T01:24:47.470Z,7.30
2018-11-28T01:27:19.046Z,6.33
2018-11-28T01:29:50.166Z,7.50
2018-11-28T01:32:22.214Z,7.10
2018-11-28T01:34:53.507Z,8.00
2018-11-28T01:37:25.580Z,7.60
2018-11-28T01:39:56.818Z,7.07
2018-11-28T01:42:29.304Z,6.57
2018-11-28T01:45:02.890Z,8.10
2018-11-28T01:47:34.382Z,7.13
2018-11-28T01:50:08.281Z,6.60
2018-11-28T01:52:39.963Z,7.80
2018-11-28T01:55:13.026Z,6.60
2018-11-28T01:57:44.490Z,8.00
2018-11-28T02:00:21.386Z,7.10
2018-11-28T02:02:57.610Z,7.13
2018-11-28T02:05:29.847Z,7.27
2018-11-28T02:08:01.434Z,7.40
2018-11-28T02:10:32.580Z,8.10
2018-11-28T02:13:03.951Z,7.27
2018-11-28T02:16:03.885Z,6.60
2018-11-28T02:19:16.166Z,7.40
2018-11-28T02:21:48.071Z,8.40
2018-11-28T02:24:19.749Z,7.97
2018-11-28T02:26:51.059Z,7.17
2018-11-28T02:29:22.904Z,7.37
2018-11-28T02:31:54.231Z,7.10
2018-11-28T02:34:25.584Z,7.27
2018-11-28T02:36:57.234Z,7.60
2018-11-28T02:39:28.799Z,6.03
2018-11-28T02:42:00.299Z,6.83
2018-11-28T02:44:33.448Z,7.13
2018-11-28T02:47:04.617Z,7.60
2018-11-28T02:49:36.610Z,7.33
2018-11-28T02:52:08.247Z,7.60
2018-11-28T02:54:39.470Z,10.67
2018-11-28T02:57:11.249Z,6.83
2018-11-28T02:59:43.906Z,7.50
2018-11-28T03:02:15.327Z,7.73
2018-11-28T03:04:47.181Z,7.93
2018-11-28T03:07:18.458Z,7.17
2018-11-28T03:09:50.098Z,7.40
2018-11-28T03:12:21.170Z,7.33
2018-11-28T03:14:52.680Z,8.10
2018-11-28T03:17:27.058Z,7.07
2018-11-28T03:19:58.587Z,7.63
2018-11-28T03:22:29.615Z,7.60
2018-11-28T03:25:01.088Z,7.10
2018-11-28T03:27:32.506Z,7.43
2018-11-28T03:30:05.376Z,7.30
2018-11-28T03:32:37.101Z,7.03
2018-11-28T03:35:09.654Z,6.80
2018-11-28T03:37:41.285Z,7.40
2018-11-28T03:40:12.974Z,7.20
2018-11-28T03:42:44.270Z,10.53
2018-11-28T03:45:17.878Z,11.63
2018-11-28T03:47:48.914Z,14.03
2018-11-28T03:50:20.892Z,13.33
2018-11-28T03:52:52.301Z,12.40
2018-11-28T03:55:23.783Z,13.10
2018-11-28T03:57:55.167Z,12.63
2018-11-28T04:00:27.470Z,13.70
2018-11-28T04:02:58.604Z,12.90
2018-11-28T04:05:31.250Z,14.07
2018-11-28T04:08:03.586Z,13.83
2018-11-28T04:10:34.718Z,15.67
2018-11-28T04:13:08.310Z,13.43
2018-11-28T04:15:39.727Z,15.50
2018-11-28T04:18:10.885Z,17.23
2018-11-28T04:20:42.065Z,15.37
2018-11-28T04:23:13.399Z,15.60
2018-11-28T04:25:45.427Z,16.77
2018-11-28T04:28:17.084Z,15.30
2018-11-28T04:30:48.531Z,14.90
2018-11-28T04:33:19.953Z,15.00
2018-11-28T04:35:51.352Z,14.57
2018-11-28T04:38:22.758Z,15.50
2018-11-28T04:40:54.161Z,14.77
2018-11-28T04:43:25.454Z,14.90
2018-11-28T04:45:57.338Z,15.33
2018-11-28T04:48:28.631Z,14.47
2018-11-28T04:51:00.095Z,15.63
2018-11-28T04:53:31.298Z,15.50
2018-11-28T04:56:02.450Z,16.20
2018-11-28T04:58:33.762Z,16.10
2018-11-28T05:01:06.822Z,15.83
2018-11-28T05:03:37.958Z,14.87
2018-11-28T05:06:09.179Z,15.70
2018-11-28T05:08:40.407Z,13.93
2018-11-28T05:11:11.787Z,13.20
2018-11-28T05:13:43.047Z,12.40
2018-11-28T05:16:15.085Z,13.13
2018-11-28T05:18:46.135Z,12.43
2018-11-28T05:21:17.386Z,13.37
2018-11-28T05:23:48.543Z,14.97
2018-11-28T05:26:20.151Z,13.90
2018-11-28T05:28:51.238Z,14.87
2018-11-28T05:31:22.661Z,13.60
2018-11-28T05:33:53.818Z,15.33
2018-11-28T05:36:25.296Z,12.60
2018-11-28T05:38:56.546Z,12.97
2018-11-28T05:41:27.605Z,13.80
2018-11-28T05:43:58.838Z,12.70
2018-11-28T05:46:31.310Z,12.33
2018-11-28T05:49:03.010Z,13.73
2018-11-28T05:51:34.342Z,12.10
2018-11-28T05:54:05.974Z,10.40
2018-11-28T05:56:37.333Z,11.47
2018-11-28T05:59:08.678Z,8.33
2018-11-28T06:01:40.713Z,8.87
2018-11-28T06:04:11.807Z,7.97
2018-11-28T06:06:43.264Z,8.40
2018-11-28T06:09:14.514Z,8.07
2018-11-28T06:11:45.747Z,8.37
2018-11-28T06:14:17.069Z,9.47
2018-11-28T06:16:48.623Z,8.30
2018-11-28T06:19:19.761Z,7.60
2018-11-28T06:21:50.896Z,6.33
2018-11-28T06:24:22.187Z,7.30
2018-11-28T06:26:53.582Z,7.10
2018-11-28T06:29:24.853Z,6.73
2018-11-28T06:31:56.909Z,6.50
2018-11-28T06:34:27.877Z,5.90
2018-11-28T06:36:58.979Z,6.17
2018-11-28T06:39:30.167Z,7.17
2018-11-28T06:42:01.709Z,6.07
2018-11-28T06:44:32.951Z,6.90
2018-11-28T06:47:06.243Z,6.97
2018-11-28T06:49:37.422Z,6.27
2018-11-28T06:52:09.538Z,6.97
2018-11-28T06:54:40.471Z,7.50
2018-11-28T06:57:12.022Z,6.20
2018-11-28T06:59:43.130Z,7.43
2018-11-28T07:02:14.826Z,6.73
2018-11-28T07:04:45.870Z,7.37
2018-11-28T07:07:17.858Z,7.63
2018-11-28T07:09:49.095Z,6.67
2018-11-28T07:12:20.526Z,7.00
2018-11-28T07:14:51.723Z,7.00
2018-11-28T07:17:23.018Z,7.10
2018-11-28T07:19:54.154Z,7.00
2018-11-28T07:22:25.614Z,6.20
2018-11-28T07:24:56.870Z,7.03
2018-11-28T07:27:28.599Z,7.00
2018-11-28T07:29:59.702Z,6.20
2018-11-28T07:32:31.026Z,6.57
2018-11-28T07:35:02.119Z,7.30
2018-11-28T07:37:33.762Z,7.10
2018-11-28T07:40:05.666Z,7.07
2018-11-28T07:42:37.153Z,6.37
2018-11-28T07:45:14.558Z,7.00
2018-11-28T07:47:47.129Z,7.47
2018-11-28T07:50:18.362Z,6.57
2018-11-28T07:52:49.742Z,7.10
2018-11-28T07:55:21.824Z,7.60
2018-11-28T07:57:53.686Z,8.27
2018-11-28T08:00:25.020Z,7.10
2018-11-28T08:02:56.210Z,7.60
2018-11-28T08:05:27.552Z,7.47
2018-11-28T08:07:58.711Z,7.43
2018-11-28T08:10:30.039Z,7.03
2018-11-28T08:13:02.500Z,7.97
2018-11-28T08:15:33.895Z,8.27
2018-11-28T08:18:05.459Z,6.97
2018-11-28T08:20:36.603Z,7.03
2018-11-28T08:23:08.980Z,7.67
2018-11-28T08:25:40.071Z,6.50
2018-11-28T08:28:11.374Z,7.87
2018-11-28T08:30:42.287Z,7.80
2018-11-28T08:33:13.444Z,6.67
2018-11-28T08:35:44.584Z,6.70
2018-11-28T08:38:16.024Z,6.43
2018-11-28T08:40:47.118Z,6.50
2018-11-28T08:43:18.628Z,6.90
2018-11-28T08:45:49.710Z,5.83
2018-11-28T08:48:21.310Z,7.00
2018-11-28T08:50:52.347Z,7.60
2018-11-28T08:53:24.750Z,6.63
2018-11-28T08:55:57.369Z,6.90
2018-11-28T08:58:28.743Z,6.83
2018-11-28T09:00:59.850Z,7.20
2018-11-28T09:03:31.318Z,8.20
2018-11-28T09:06:04.303Z,7.60
2018-11-28T09:08:35.793Z,7.40
2018-11-28T09:11:07.035Z,7.10
2018-11-28T09:13:38.565Z,7.30
2018-11-28T09:16:10.079Z,7.83
2018-11-28T09:18:41.554Z,7.87
2018-11-28T09:21:12.746Z,8.27
2018-11-28T09:23:44.474Z,6.90
2018-11-28T09:26:19.229Z,7.40
2018-11-28T09:28:51.076Z,7.60
2018-11-28T09:31:22.334Z,8.30
2018-11-28T09:33:53.709Z,8.33
2018-11-28T09:36:24.894Z,8.00
2018-11-28T09:38:56.225Z,7.53
2018-11-28T09:41:27.483Z,8.03
2018-11-28T09:43:58.955Z,7.37
2018-11-28T09:46:30.206Z,8.10
2018-11-28T09:49:01.527Z,8.17
2018-11-28T09:51:32.770Z,7.80
2018-11-28T09:54:04.326Z,8.07
2018-11-28T09:56:36.346Z,7.83
2018-11-28T09:59:07.864Z,7.23
2018-11-28T10:01:39.167Z,7.67
2018-11-28T10:04:10.575Z,7.87
2018-11-28T10:06:41.583Z,7.77
2018-11-28T10:09:13.242Z,8.20
2018-11-28T10:11:44.191Z,8.30
2018-11-28T10:14:15.782Z,9.03
2018-11-28T10:16:47.243Z,8.27
2018-11-28T10:19:18.474Z,8.37
2018-11-28T10:21:49.481Z,8.53
2018-11-28T10:24:20.739Z,10.17
2018-11-28T10:26:51.723Z,9.13
2018-11-28T10:29:22.999Z,10.30
2018-11-28T10:31:54.190Z,9.60
2018-11-28T10:34:29.486Z,8.57
2018-11-28T10:36:57.019Z,9.53
2018-11-28T10:39:28.354Z,10.73
2018-11-28T10:41:59.515Z,9.80
2018-11-28T10:44:33.259Z,10.43
2018-11-28T10:47:04.354Z,10.10
2018-11-28T10:49:35.810Z,9.70
2018-11-28T10:52:07.154Z,9.70
2018-11-28T10:54:39.002Z,10.53
2018-11-28T10:57:11.465Z,11.10
2018-11-28T10:59:43.174Z,10.13
2018-11-28T11:02:19.306Z,11.07
2018-11-28T11:04:55.497Z,11.20
2018-11-28T11:07:31.498Z,11.40
2018-11-28T11:10:08.547Z,10.60
2018-11-28T11:12:44.735Z,10.40
2018-11-28T11:15:16.367Z,9.23
2018-11-28T11:17:47.526Z,10.47
2018-11-28T11:20:19.324Z,10.50
2018-11-28T11:22:51.159Z,9.97
2018-11-28T11:25:22.842Z,9.30
2018-11-28T11:27:54.705Z,11.33
2018-11-28T11:30:26.166Z,11.00
2018-11-28T11:32:57.319Z,9.93
2018-11-28T11:35:28.654Z,11.07
2018-11-28T11:38:00.056Z,10.40
2018-11-28T11:40:31.223Z,10.27
2018-11-28T11:43:02.899Z,11.00
2018-11-28T11:45:34.273Z,10.00
2018-11-28T11:48:05.430Z,10.43
2018-11-28T11:50:37.030Z,10.30
2018-11-28T11:53:08.523Z,9.90
2018-11-28T11:55:40.107Z,10.43
2018-11-28T11:58:13.165Z,10.13
2018-11-28T12:00:45.772Z,9.97
2018-11-28T12:03:17.036Z,10.50
2018-11-28T12:05:52.023Z,11.40
2018-11-28T12:08:23.699Z,11.27
2018-11-28T12:10:55.583Z,10.77
2018-11-28T12:13:27.200Z,10.47
2018-11-28T12:15:58.894Z,10.90
2018-11-28T12:18:30.304Z,10.70
2018-11-28T12:21:04.558Z,12.73
2018-11-28T12:23:35.730Z,10.30
2018-11-28T12:26:09.022Z,8.93
2018-11-28T12:28:40.391Z,10.73
2018-11-28T12:31:11.803Z,10.93
2018-11-28T12:33:43.043Z,11.50
2018-11-28T12:36:14.363Z,11.50
2018-11-28T12:38:47.288Z,12.80
2018-11-28T12:41:19.807Z,12.20
2018-11-28T12:43:51.043Z,11.90
2018-11-28T12:46:22.636Z,12.10
2018-11-28T12:48:54.655Z,12.30
2018-11-28T12:51:26.468Z,11.87
2018-11-28T12:53:57.858Z,12.00
2018-11-28T12:56:29.386Z,12.53
2018-11-28T12:59:02.274Z,12.40
2018-11-28T13:01:33.754Z,12.50
2018-11-28T13:04:05.031Z,11.57
2018-11-28T13:06:36.354Z,14.00
2018-11-28T13:09:08.914Z,11.73
2018-11-28T13:11:40.204Z,12.40
2018-11-28T13:14:11.482Z,13.10
2018-11-28T13:16:43.022Z,12.10
2018-11-28T13:19:14.414Z,12.40
2018-11-28T13:21:46.010Z,11.73
2018-11-28T13:24:17.194Z,12.87
2018-11-28T13:26:48.286Z,12.30
2018-11-28T13:29:19.226Z,13.33
2018-11-28T13:31:50.998Z,12.80
2018-11-28T13:34:21.927Z,13.60
2018-11-28T13:36:53.355Z,13.50
2018-11-28T13:39:24.366Z,14.60
2018-11-28T13:41:55.942Z,13.50
2018-11-28T13:44:27.457Z,14.00
2018-11-28T13:46:58.983Z,14.67
2018-11-28T13:49:29.974Z,14.27
2018-11-28T13:52:02.816Z,14.27
2018-11-28T13:55:36.464Z,14.63
2018-11-28T13:57:06.969Z,14.47
2018-11-28T13:59:37.695Z,14.33
2018-11-28T14:02:09.002Z,13.57
2018-11-28T14:04:40.376Z,14.63
2018-11-28T14:07:11.874Z,13.43
2018-11-28T14:09:43.109Z,13.73
2018-11-28T14:12:14.569Z,13.50
2018-11-28T14:14:45.894Z,15.33
2018-11-28T14:17:17.581Z,14.30
2018-11-28T14:19:49.325Z,14.90
2018-11-28T14:22:33.221Z,13.93
2018-11-28T14:25:05.047Z,15.30
2018-11-28T14:27:36.347Z,16.50
2018-11-28T14:30:11.258Z,16.43
2018-11-28T14:32:42.951Z,14.97
2018-11-28T14:35:14.390Z,14.93
2018-11-28T14:37:45.875Z,14.53
2018-11-28T14:40:18.591Z,17.30
2018-11-28T14:42:52.746Z,16.37
2018-11-28T14:45:24.100Z,16.67
2018-11-28T14:47:56.628Z,16.87
2018-11-28T14:50:29.554Z,17.07
2018-11-28T14:53:04.563Z,16.40
2018-11-28T14:55:37.110Z,17.27
2018-11-28T14:58:09.794Z,17.53
2018-11-28T15:00:41.781Z,15.93
2018-11-28T15:03:19.309Z,16.27
2018-11-28T15:06:13.919Z,16.47
2018-11-28T15:08:45.390Z,16.23
2018-11-28T15:11:16.787Z,16.87
2018-11-28T15:13:48.306Z,16.03
2018-11-28T15:16:19.303Z,17.43
2018-11-28T15:18:50.546Z,17.83
2018-11-28T15:21:21.754Z,18.60
2018-11-28T15:23:53.454Z,16.63
2018-11-28T15:26:24.612Z,17.17
2018-11-28T15:28:56.478Z,18.00
2018-11-28T15:31:27.863Z,17.63
2018-11-28T15:33:59.559Z,17.60
2018-11-28T15:36:30.967Z,16.90
2018-11-28T15:39:02.322Z,17.67
2018-11-28T15:41:33.450Z,17.03
2018-11-28T15:44:04.982Z,18.50
2018-11-28T15:46:36.244Z,18.67
2018-11-28T15:49:07.858Z,18.10
2018-11-28T15:51:38.897Z,17.27
2018-11-28T15:54:10.264Z,16.90
2018-11-28T15:56:41.509Z,16.87
2018-11-28T15:59:12.967Z,18.00
2018-11-28T16:01:45.245Z,16.80
2018-11-28T16:04:17.718Z,17.33
2018-11-28T16:06:49.297Z,17.47
2018-11-28T16:09:26.192Z,18.13
2018-11-28T16:11:57.349Z,18.90
2018-11-28T16:14:28.590Z,19.63
2018-11-28T16:16:59.820Z,18.50
2018-11-28T16:19:31.269Z,18.30
2018-11-28T16:22:02.466Z,18.73
2018-11-28T16:24:34.275Z,17.43
2018-11-28T16:27:06.507Z,17.90
2018-11-28T16:29:37.962Z,19.27
2018-11-28T16:32:09.218Z,16.03
2018-11-28T16:34:42.046Z,18.47
2018-11-28T16:37:13.459Z,16.80
2018-11-28T16:39:44.897Z,18.53
2018-11-28T16:42:16.053Z,17.80
2018-11-28T16:44:47.369Z,17.07
2018-11-28T16:47:18.409Z,17.40
2018-11-28T16:49:50.640Z,18.03
2018-11-28T16:52:22.209Z,17.53
2018-11-28T16:54:53.697Z,16.13
2018-11-28T16:57:24.725Z,16.17
2018-11-28T16:59:56.512Z,17.17
2018-11-28T17:02:28.535Z,17.23
2018-11-28T17:04:59.841Z,16.40
2018-11-28T17:07:31.012Z,16.37
2018-11-28T17:10:02.443Z,17.90
2018-11-28T17:12:33.678Z,15.80
2018-11-28T17:15:04.897Z,15.87
2018-11-28T17:17:36.040Z,16.63
2018-11-28T17:20:11.100Z,15.53
2018-11-28T17:22:42.236Z,17.60
2018-11-28T17:25:18.482Z,16.30
2018-11-28T17:27:49.720Z,16.10
2018-11-28T17:30:28.085Z,17.20
2018-11-28T17:32:59.063Z,17.00
2018-11-28T17:35:30.929Z,15.77
2018-11-28T17:38:01.955Z,16.77
2018-11-28T17:40:33.275Z,15.80
2018-11-28T17:43:06.801Z,16.23
2018-11-28T17:45:38.533Z,17.80
2018-11-28T17:48:09.873Z,17.60
2018-11-28T17:50:41.189Z,18.70
2018-11-28T17:53:14.134Z,19.83
2018-11-28T17:55:52.491Z,18.53
2018-11-28T17:58:23.485Z,18.33
2018-11-28T18:00:54.957Z,18.37
2018-11-28T18:03:27.229Z,18.07
2018-11-28T18:05:59.037Z,20.60
2018-11-28T18:08:30.058Z,19.27
2018-11-28T18:11:10.308Z,19.73
2018-11-28T18:13:41.576Z,18.20
2018-11-28T18:16:13.064Z,18.30
2018-11-28T18:18:44.131Z,19.83
2018-11-28T18:21:15.462Z,20.47
2018-11-28T18:23:46.734Z,19.17
2018-11-28T18:26:18.314Z,19.23
2018-11-28T18:28:49.520Z,18.37
2018-11-28T18:31:21.947Z,18.93
2018-11-28T18:33:53.051Z,18.63
2018-11-28T18:36:24.540Z,19.20
2018-11-28T18:38:55.629Z,18.77
2018-11-28T18:41:27.200Z,19.17
2018-11-28T18:43:58.585Z,18.97
2018-11-28T18:46:30.074Z,18.90
2018-11-28T18:49:02.223Z,19.23
2018-11-28T18:51:33.637Z,19.60
2018-11-28T18:54:05.964Z,18.93
2018-11-28T18:56:37.293Z,20.07
2018-11-28T18:59:08.494Z,20.17
2018-11-28T19:01:40.201Z,20.30
2018-11-28T19:04:13.343Z,21.70
2018-11-28T19:06:44.842Z,22.20
2018-11-28T19:09:20.629Z,23.70
2018-11-28T19:11:52.425Z,21.60
2018-11-28T19:14:23.602Z,22.23
2018-11-28T19:16:56.451Z,22.13
2018-11-28T19:19:27.908Z,22.87
2018-11-28T19:21:59.345Z,22.40
2018-11-28T19:24:30.806Z,23.47
2018-11-28T19:27:02.734Z,23.53
2018-11-28T19:29:34.318Z,20.83
2018-11-28T19:32:05.721Z,20.27
2018-11-28T19:34:37.518Z,21.43
2018-11-28T19:37:09.034Z,20.57
2018-11-28T19:39:40.308Z,20.67
2018-11-28T19:42:11.629Z,20.10
2018-11-28T19:44:42.954Z,20.67
2018-11-28T19:47:14.462Z,20.03
2018-11-28T19:49:45.805Z,19.67
2018-11-28T19:52:17.253Z,20.40
2018-11-28T19:54:48.587Z,20.80
2018-11-28T19:57:19.752Z,19.77
2018-11-28T19:59:51.069Z,20.43
2018-11-28T20:02:22.378Z,21.00
2018-11-28T20:04:54.512Z,23.10
2018-11-28T20:07:25.829Z,21.13
2018-11-28T20:09:58.671Z,21.17
2018-11-28T20:12:30.502Z,24.43
2018-11-28T20:15:01.439Z,22.57
2018-11-28T20:17:33.214Z,20.93
2018-11-28T20:20:04.173Z,20.90
2018-11-28T20:22:35.622Z,21.37
2018-11-28T20:25:07.849Z,22.20
2018-11-28T20:27:38.884Z,21.90
2018-11-28T20:30:19.567Z,20.97
2018-11-28T20:32:51.270Z,23.27
2018-11-28T20:35:22.428Z,23.47
2018-11-28T20:37:53.695Z,24.67
2018-11-28T20:40:24.873Z,25.07
2018-11-28T20:42:56.882Z,24.93
2018-11-28T20:45:27.935Z,25.83
2018-11-28T20:47:59.110Z,25.03
2018-11-28T20:50:33.376Z,25.00
2018-11-28T20:53:08.126Z,25.93
2018-11-28T20:55:40.689Z,26.50
2018-11-28T20:58:11.817Z,28.23
2018-11-28T21:00:43.027Z,29.70
2018-11-28T21:03:14.889Z,32.10
2018-11-28T21:05:47.933Z,30.70
2018-11-28T21:08:19.529Z,33.80
2018-11-28T21:10:50.628Z,32.97
2018-11-28T21:13:22.314Z,33.30
2018-11-28T21:15:53.449Z,34.27
2018-11-28T21:18:25.085Z,35.77
2018-11-28T21:20:56.036Z,34.13
2018-11-28T21:23:27.816Z,38.40
2018-11-28T21:25:58.841Z,36.10
2018-11-28T21:28:30.412Z,37.83
2018-11-28T21:31:01.399Z,38.57
2018-11-28T21:33:33.067Z,37.73
2018-11-28T21:36:06.508Z,39.57
2018-11-28T21:38:38.345Z,41.57
2018-11-28T21:41:09.520Z,43.50
2018-11-28T21:43:40.808Z,41.77
2018-11-28T21:46:12.068Z,44.63
2018-11-28T21:48:43.597Z,45.30
2018-11-28T21:51:14.715Z,45.10
2018-11-28T21:53:46.313Z,46.47
2018-11-28T21:56:17.868Z,47.33
2018-11-28T21:58:49.129Z,46.23
2018-11-28T22:01:20.441Z,48.10
2018-11-28T22:03:51.780Z,50.40
2018-11-28T22:06:24.197Z,48.17
2018-11-28T22:08:55.873Z,48.30
2018-11-28T22:11:27.259Z,50.50
2018-11-28T22:13:59.598Z,50.03
2018-11-28T22:16:30.770Z,51.07
2018-11-28T22:19:02.242Z,47.20
2018-11-28T22:21:33.363Z,47.53
2018-11-28T22:24:05.461Z,49.40
2018-11-28T22:26:36.821Z,46.93
2018-11-28T22:29:07.945Z,49.17
2018-11-28T22:31:39.059Z,48.40
2018-11-28T22:34:11.523Z,48.73
2018-11-28T22:36:43.384Z,50.03
2018-11-28T22:39:14.891Z,49.00
2018-11-28T22:41:45.894Z,46.30
2018-11-28T22:44:17.441Z,51.03
2018-11-28T22:46:48.525Z,50.40
2018-11-28T22:49:20.344Z,51.47
2018-11-28T22:51:51.452Z,50.90
2018-11-28T22:54:22.969Z,48.10
2018-11-28T22:56:54.134Z,48.20
2018-11-28T22:59:25.865Z,53.57
2018-11-28T23:03:04.284Z,54.70
2018-11-28T23:06:06.957Z,60.27
2018-11-28T23:08:39.185Z,59.33
2018-11-28T23:11:10.696Z,58.27
2018-11-28T23:13:41.729Z,60.53
2018-11-28T23:16:13.622Z,63.03
2018-11-28T23:18:44.553Z,59.00
2018-11-28T23:21:16.185Z,58.97
2018-11-28T23:23:47.221Z,61.00
2018-11-28T23:26:18.949Z,64.43
2018-11-28T23:28:49.913Z,65.10
2018-11-28T23:31:21.479Z,66.83
2018-11-28T23:33:52.512Z,66.27
2018-11-28T23:36:23.928Z,64.30
2018-11-28T23:38:55.415Z,65.93
2018-11-28T23:41:27.137Z,67.40
2018-11-28T23:43:58.369Z,65.60
2018-11-28T23:46:30.362Z,66.13
2018-11-28T23:49:02.925Z,70.00
2018-11-28T23:51:34.365Z,63.10
2018-11-28T23:54:06.109Z,69.10
2018-11-28T23:56:37.833Z,65.97
2018-11-28T23:59:08.878Z,67.37
